Time;durP1;ratioP1;P1;durP2;ratioP2;P2;SDS_P1;SDS_P2;PMS_P1;PMS_P2;Temp;Humidity;BMP_temperature;BMP_pressure;BME280_temperature;BME280_humidity;BME280_pressure;Samples;Min_cycle;Max_cycle;Signal;HPM_P1;HPM_P2
2023/12/10 00:00:24;;;;;;;;;;;8.80;99.90;;;8.24;100.00;96674.44;5040280;28;1581;-69
2023/12/10 00:02:51;;;;;;;;;;;8.80;99.90;;;8.27;100.00;96663.94;5038340;28;1666;-69
2023/12/10 00:05:18;;;;;;;;;;;8.90;99.90;;;8.23;100.00;96657.22;5037328;28;1596;-70
2023/12/10 00:07:45;;;;;;;;;;;8.90;99.90;;;8.22;100.00;96652.97;5037999;28;1596;-70
2023/12/10 00:10:12;;;;;;;;;;;8.80;99.90;;;8.16;100.00;96680.81;5040464;28;1788;-70
2023/12/10 00:12:40;;;;;;;;;;;8.80;99.90;;;8.26;100.00;96662.28;5038179;28;1927;-70
2023/12/10 00:15:07;;;;;;;;;;;8.80;99.90;;;8.18;100.00;96678.97;5041352;28;1542;-69
2023/12/10 00:17:35;;;;;;;;;;;8.70;99.90;;;7.93;100.00;96668.94;5040130;28;1589;-69
2023/12/10 00:20:01;;;;;;;;;;;8.70;99.90;;;8.09;100.00;96670.81;5038781;28;1668;-70
2023/12/10 00:22:28;;;;;;;;;;;8.70;99.90;;;8.10;100.00;96678.50;5038827;28;2099;-70
2023/12/10 00:24:56;;;;;;;;;;;8.60;99.90;;;8.14;100.00;96684.34;5039436;28;1702;-70
2023/12/10 00:27:23;;;;;;;;;;;8.60;99.90;;;8.04;100.00;96688.28;5035248;28;1682;-69
2023/12/10 00:29:50;;;;;;;;;;;8.60;99.90;;;7.82;100.00;96686.69;5037226;28;1606;-70
2023/12/10 00:32:17;;;;;;;;;;;8.60;99.90;;;7.92;100.00;96695.69;5038236;28;1923;-69
2023/12/10 00:34:44;;;;;;;;;;;8.70;99.90;;;8.05;100.00;96713.22;5036667;28;1598;-69
2023/12/10 00:37:11;;;;;;;;;;;8.60;99.90;;;7.91;100.00;96696.63;5038015;28;1642;-69
2023/12/10 00:39:39;;;;;;;;;;;8.60;99.90;;;7.96;100.00;96694.66;5037915;28;1599;-69
2023/12/10 00:42:06;;;;;;;;;;;8.60;99.90;;;8.07;100.00;96721.72;5040179;28;1581;-69
2023/12/10 00:44:33;;;;;;;;;;;8.70;99.90;;;8.13;100.00;96736.97;5039292;28;1589;-69
2023/12/10 00:47:00;;;;;;;;;;;8.70;99.90;;;8.13;100.00;96718.88;5038990;28;1426;-69
2023/12/10 00:49:26;;;;;;;;;;;8.70;99.90;;;8.20;100.00;96743.53;5036342;28;1575;-69
2023/12/10 00:51:53;;;;;;;;;;;8.80;99.90;;;8.22;100.00;96743.47;5038115;28;1399;-69
2023/12/10 00:54:24;;;;;;;;;;;8.70;99.90;;;8.06;100.00;96766.59;5039951;28;1934;-70
2023/12/10 00:56:51;;;;;;;;;;;8.60;99.90;;;8.10;100.00;96756.03;5039716;28;1719;-69
2023/12/10 00:59:17;;;;;;;;;;;8.80;99.90;;;8.08;100.00;96788.88;5036734;28;1385;-70
2023/12/10 01:01:44;;;;;;;;;;;8.70;99.90;;;8.11;100.00;96762.03;5041164;28;1498;-69
2023/12/10 01:04:11;;;;;;;;;;;8.70;99.90;;;7.98;100.00;96769.50;5039609;28;1379;-69
2023/12/10 01:06:38;;;;;;;;;;;8.60;99.90;;;7.92;100.00;96765.47;5035824;28;1360;-69
2023/12/10 01:09:05;;;;;;;;;;;8.60;99.90;;;7.97;100.00;96785.94;5037535;28;1658;-69
2023/12/10 01:11:32;;;;;;;;;;;8.50;99.90;;;7.94;100.00;96771.41;5039429;28;1658;-69
2023/12/10 01:14:02;;;;;;;;;;;8.50;99.90;;;7.98;100.00;96769.50;5042808;28;1894;-69
2023/12/10 01:16:29;;;;;;;;;;;8.50;99.90;;;8.08;100.00;96785.47;5042820;28;1800;-69
2023/12/10 01:19:00;;;;;;;;;;;8.60;99.90;;;7.98;100.00;96785.00;5039914;28;1808;-69
2023/12/10 01:21:27;;;;;;;;;;;8.60;99.90;;;7.96;100.00;96804.94;5037327;28;1521;-69
2023/12/10 01:23:54;;;;;;;;;;;8.50;99.90;;;8.01;100.00;96781.47;5038276;28;1496;-70
2023/12/10 01:26:22;;;;;;;;;;;8.60;99.90;;;7.99;100.00;96793.63;5037366;28;1442;-69
2023/12/10 01:28:49;;;;;;;;;;;8.60;99.90;;;8.13;100.00;96780.91;5040479;28;1443;-69
2023/12/10 01:31:16;;;;;;;;;;;8.50;99.90;;;7.83;100.00;96741.78;5041394;28;1442;-69
2023/12/10 01:33:44;;;;;;;;;;;8.40;99.90;;;7.88;100.00;96789.75;5039113;28;1902;-69
2023/12/10 01:36:22;;;;;;;;;;;8.50;99.90;;;7.96;100.00;96768.75;5040291;28;1423;-69
2023/12/10 01:38:50;;;;;;;;;;;8.40;99.90;;;7.83;100.00;96796.88;5039954;28;1437;-69
2023/12/10 01:41:18;;;;;;;;;;;8.40;99.90;;;7.72;100.00;96784.44;5039647;28;1429;-69
2023/12/10 01:43:45;;;;;;;;;;;8.30;99.90;;;7.63;100.00;96782.25;5034026;28;1449;-69
2023/12/10 01:46:12;;;;;;;;;;;8.40;99.90;;;7.74;100.00;96818.78;5036390;28;1368;-69
2023/12/10 01:48:41;;;;;;;;;;;8.40;99.90;;;7.60;100.00;96859.88;5041252;28;1425;-69
2023/12/10 01:51:08;;;;;;;;;;;8.30;99.90;;;7.76;100.00;96860.06;5035507;28;1446;-68
2023/12/10 01:53:37;;;;;;;;;;;8.30;99.90;;;7.76;100.00;96839.41;5039018;28;1906;-69
2023/12/10 01:56:05;;;;;;;;;;;8.30;99.90;;;7.60;100.00;96851.28;5037805;28;1447;-69
2023/12/10 01:58:32;;;;;;;;;;;8.30;99.90;;;7.68;100.00;96847.44;5037342;28;1446;-68
2023/12/10 02:01:00;;;;;;;;;;;8.20;99.90;;;7.73;100.00;96837.78;5039222;28;1536;-69
2023/12/10 02:03:30;;;;;;;;;;;8.20;99.90;;;7.68;100.00;96857.78;5020036;28;1536;-70
2023/12/10 02:05:57;;;;;;;;;;;8.20;99.90;;;7.62;100.00;96857.19;5042066;28;1376;-69
2023/12/10 02:08:26;;;;;;;;;;;8.20;99.90;;;7.68;100.00;96880.19;5042056;28;2034;-69
2023/12/10 02:10:53;;;;;;;;;;;8.20;99.90;;;7.73;100.00;96876.53;5042838;28;1526;-69
2023/12/10 02:13:20;;;;;;;;;;;8.20;99.90;;;7.71;100.00;96862.00;5041509;28;1902;-69
2023/12/10 02:15:50;;;;;;;;;;;8.20;99.90;;;7.48;100.00;96873.28;5040342;28;1467;-69
2023/12/10 02:18:19;;;;;;;;;;;8.20;99.90;;;7.49;100.00;96880.97;5043328;28;1545;-69
2023/12/10 02:20:48;;;;;;;;;;;8.10;99.90;;;7.50;100.00;96889.56;5041653;28;1395;-69
2023/12/10 02:23:47;;;;;;;;;;;8.10;99.90;;;7.52;100.00;96864.50;5039096;28;1544;-70
2023/12/10 02:26:14;;;;;;;;;;;8.10;99.90;;;7.63;100.00;96862.31;5052209;28;1722;-69
2023/12/10 02:28:41;;;;;;;;;;;8.20;99.90;;;7.48;100.00;96886.19;5041176;28;1548;-69
2023/12/10 02:31:08;;;;;;;;;;;8.20;99.90;;;7.58;100.00;96879.75;5037282;28;1960;-69
2023/12/10 02:33:35;;;;;;;;;;;8.20;99.90;;;7.54;100.00;96893.69;5043515;28;1898;-68
2023/12/10 02:36:02;;;;;;;;;;;8.10;99.90;;;7.58;100.00;96900.41;5042846;28;1530;-69
2023/12/10 02:38:29;;;;;;;;;;;8.10;99.90;;;7.54;100.00;96896.28;5041739;28;1486;-69
2023/12/10 02:40:56;;;;;;;;;;;8.20;99.90;;;7.60;100.00;96900.38;5036707;28;1411;-69
2023/12/10 02:43:23;;;;;;;;;;;8.20;99.90;;;7.67;100.00;96887.13;5040268;28;1429;-69
2023/12/10 02:45:50;;;;;;;;;;;8.20;99.90;;;7.64;100.00;96892.41;5039987;28;1461;-69
2023/12/10 02:48:21;;;;;;;;;;;8.30;99.90;;;7.59;100.00;96875.41;5040926;28;1324;-69
2023/12/10 02:50:49;;;;;;;;;;;8.30;99.90;;;7.76;100.00;96903.97;5040575;28;1488;-69
2023/12/10 02:53:17;;;;;;;;;;;8.30;99.90;;;7.63;100.00;96955.28;5038779;28;2009;-69
2023/12/10 02:55:44;;;;;;;;;;;8.30;99.90;;;7.65;100.00;96935.41;5043626;28;1390;-69
2023/12/10 02:58:11;;;;;;;;;;;8.20;99.90;;;7.46;100.00;96930.16;5041408;28;1576;-69
2023/12/10 03:00:38;;;;;;;;;;;8.10;99.90;;;7.51;100.00;96924.81;5041605;28;1424;-70
2023/12/10 03:03:05;;;;;;;;;;;8.10;99.90;;;7.33;100.00;96937.56;5041096;28;1372;-69
2023/12/10 03:05:32;;;;;;;;;;;8.10;99.90;;;7.39;100.00;96995.88;5040999;28;1423;-69
2023/12/10 03:07:59;;;;;;;;;;;8.00;99.90;;;7.39;100.00;96949.41;5038912;28;1740;-69
2023/12/10 03:10:25;;;;;;;;;;;8.10;99.90;;;7.38;100.00;96926.22;5038509;28;1403;-69
2023/12/10 03:12:52;;;;;;;;;;;8.10;99.90;;;7.37;100.00;96915.06;5041275;28;1906;-69
2023/12/10 03:15:19;;;;;;;;;;;8.00;99.90;;;7.40;100.00;96968.31;5035308;28;1436;-69
2023/12/10 03:17:46;;;;;;;;;;;8.10;99.90;;;7.32;100.00;96981.50;5041564;28;1424;-69
2023/12/10 03:20:13;;;;;;;;;;;8.00;99.90;;;7.44;100.00;96972.44;5039505;28;1134;-69
2023/12/10 03:22:40;;;;;;;;;;;8.10;99.90;;;7.55;100.00;96957.38;5041088;28;1372;-69
2023/12/10 03:25:07;;;;;;;;;;;8.10;99.90;;;7.43;100.00;96971.59;5041186;28;1408;-69
2023/12/10 03:27:34;;;;;;;;;;;8.10;99.90;;;7.41;100.00;97000.94;5040144;28;1463;-69
2023/12/10 03:30:02;;;;;;;;;;;8.00;99.90;;;7.46;100.00;96996.47;5044845;28;1430;-69
2023/12/10 03:32:28;;;;;;;;;;;8.00;99.90;;;7.53;100.00;96991.00;5041495;28;1427;-69
2023/12/10 03:34:56;;;;;;;;;;;8.00;99.90;;;7.42;100.00;97031.06;5039176;28;1994;-69
2023/12/10 03:37:23;;;;;;;;;;;8.00;99.90;;;7.47;100.00;97029.13;5039372;28;1438;-69
2023/12/10 03:39:49;;;;;;;;;;;8.00;99.90;;;7.40;100.00;97004.44;5040185;28;1459;-69
2023/12/10 03:42:16;;;;;;;;;;;8.10;99.90;;;7.48;100.00;97011.00;5039463;28;1380;-69
2023/12/10 03:44:43;;;;;;;;;;;8.00;99.90;;;7.41;100.00;97006.13;5041742;28;1396;-69
2023/12/10 03:47:10;;;;;;;;;;;8.00;99.90;;;7.37;100.00;97012.28;5042704;28;1439;-69
2023/12/10 03:49:37;;;;;;;;;;;8.10;99.90;;;7.54;100.00;97031.41;5039019;28;1388;-69
2023/12/10 03:52:04;;;;;;;;;;;8.00;99.90;;;7.46;100.00;97012.81;5039368;28;1451;-69
2023/12/10 03:54:31;;;;;;;;;;;8.00;99.90;;;7.50;100.00;97027.28;5042496;28;1979;-69
2023/12/10 03:56:58;;;;;;;;;;;8.10;99.90;;;7.51;100.00;97038.44;5035507;28;1510;-69
2023/12/10 03:59:25;;;;;;;;;;;8.10;99.90;;;7.44;100.00;97017.19;5037896;28;1494;-69
2023/12/10 04:01:52;;;;;;;;;;;8.00;99.90;;;7.46;100.00;97004.22;5040456;28;1423;-69
2023/12/10 04:04:19;;;;;;;;;;;8.00;99.90;;;7.48;100.00;97020.47;5039986;28;1503;-69
2023/12/10 04:06:46;;;;;;;;;;;8.00;99.90;;;7.36;100.00;97042.44;5036655;28;1474;-69
2023/12/10 04:09:12;;;;;;;;;;;8.00;99.90;;;7.39;100.00;97011.38;5039048;28;1486;-69
2023/12/10 04:11:39;;;;;;;;;;;8.00;99.90;;;7.36;100.00;97021.78;5040255;28;1356;-69
2023/12/10 04:14:10;;;;;;;;;;;7.90;99.90;;;7.41;100.00;97047.44;5038472;28;1910;-69
2023/12/10 04:16:38;;;;;;;;;;;7.90;99.90;;;7.38;100.00;97047.56;5040765;28;1466;-69
2023/12/10 04:19:05;;;;;;;;;;;7.90;99.90;;;7.20;100.00;97055.09;5038748;28;1502;-69
2023/12/10 04:21:32;;;;;;;;;;;7.90;99.90;;;7.33;100.00;97038.25;5042568;28;1559;-69
2023/12/10 04:23:59;;;;;;;;;;;7.80;99.90;;;7.32;100.00;97046.91;5042381;28;1741;-69
2023/12/10 04:26:26;;;;;;;;;;;7.90;99.90;;;7.35;100.00;97048.53;5037937;28;1990;-69
2023/12/10 04:28:53;;;;;;;;;;;7.90;99.90;;;7.27;100.00;97045.38;5038049;28;1498;-69
2023/12/10 04:31:20;;;;;;;;;;;8.00;99.90;;;7.30;100.00;97048.69;5050839;28;1582;-69
2023/12/10 04:33:46;;;;;;;;;;;7.90;99.90;;;7.20;100.00;97049.94;5037764;28;1925;-69
2023/12/10 04:36:13;;;;;;;;;;;7.90;99.90;;;7.42;100.00;97056.88;5039052;28;1479;-69
2023/12/10 04:38:40;;;;;;;;;;;7.90;99.90;;;7.38;100.00;97040.66;5039003;28;1423;-69
2023/12/10 04:41:08;;;;;;;;;;;7.90;99.90;;;7.24;100.00;97067.00;5038155;28;1597;-69
2023/12/10 04:43:34;;;;;;;;;;;7.90;99.90;;;7.25;100.00;97058.38;5039962;28;1574;-69
2023/12/10 04:46:01;;;;;;;;;;;7.90;99.90;;;7.16;100.00;97032.03;5039032;28;1059;-68
2023/12/10 04:48:28;;;;;;;;;;;7.90;99.90;;;7.22;100.00;97071.38;5042866;28;1535;-69
2023/12/10 04:50:56;;;;;;;;;;;7.90;99.90;;;7.32;100.00;97100.25;5041099;28;1614;-69
2023/12/10 04:53:23;;;;;;;;;;;7.90;99.90;;;7.27;100.00;97084.94;5037187;28;1898;-70
2023/12/10 04:55:50;;;;;;;;;;;8.00;99.90;;;7.23;100.00;97070.47;5035238;28;1065;-68
2023/12/10 04:58:16;;;;;;;;;;;7.90;99.90;;;7.30;100.00;97050.44;5038935;28;1446;-69
2023/12/10 05:00:43;;;;;;;;;;;7.90;99.90;;;7.32;100.00;97057.22;5037973;28;1101;-69
2023/12/10 05:03:11;;;;;;;;;;;7.80;99.90;;;7.29;100.00;97056.50;5037941;28;1616;-68
2023/12/10 05:05:37;;;;;;;;;;;7.90;99.90;;;7.32;100.00;97075.31;5038924;28;1458;-69
2023/12/10 05:08:05;;;;;;;;;;;7.90;99.90;;;7.40;100.00;97061.25;5035857;28;1797;-69
2023/12/10 05:10:32;;;;;;;;;;;7.90;99.90;;;7.38;100.00;97088.88;5037203;28;1423;-69
2023/12/10 05:12:59;;;;;;;;;;;7.90;99.90;;;7.23;100.00;97090.25;5038195;28;1498;-69
2023/12/10 05:15:26;;;;;;;;;;;7.80;99.90;;;7.29;100.00;97080.56;5037358;28;1910;-69
2023/12/10 05:17:53;;;;;;;;;;;7.90;99.90;;;7.34;100.00;97080.38;5037408;28;1423;-68
2023/12/10 05:20:20;;;;;;;;;;;7.80;99.90;;;7.29;100.00;97069.41;5038616;28;1498;-69
2023/12/10 05:22:47;;;;;;;;;;;7.80;99.90;;;7.30;100.00;97125.31;5038721;28;1478;-69
2023/12/10 05:25:14;;;;;;;;;;;7.70;99.90;;;7.20;100.00;97091.22;5036736;28;1768;-68
2023/12/10 05:27:41;;;;;;;;;;;7.70;99.90;;;7.13;100.00;97113.84;5041388;28;1467;-68
2023/12/10 05:30:09;;;;;;;;;;;7.70;99.90;;;7.16;100.00;97079.34;5039159;28;1548;-69
2023/12/10 05:32:37;;;;;;;;;;;7.70;99.90;;;7.12;100.00;97098.44;5037637;28;1799;-69
2023/12/10 05:35:04;;;;;;;;;;;7.70;99.90;;;7.16;100.00;97117.19;5038361;28;1914;-69
2023/12/10 05:37:31;;;;;;;;;;;7.70;99.90;;;7.06;100.00;97106.38;5038780;28;1411;-69
2023/12/10 05:39:58;;;;;;;;;;;7.70;99.90;;;7.08;100.00;97118.31;5041255;28;1725;-69
2023/12/10 05:42:25;;;;;;;;;;;7.70;99.90;;;7.05;100.00;97133.09;5040344;28;1438;-69
2023/12/10 05:44:53;;;;;;;;;;;7.60;99.90;;;6.89;100.00;97156.00;5037246;28;1543;-69
2023/12/10 05:47:38;;;;;;;;;;;7.60;99.90;;;7.11;100.00;97138.03;5039357;28;1534;-69
2023/12/10 05:50:05;;;;;;;;;;;7.60;99.90;;;7.02;100.00;97170.16;5038436;28;1431;-69
2023/12/10 05:52:32;;;;;;;;;;;7.60;99.90;;;6.88;100.00;97165.47;5054354;28;1447;-68
2023/12/10 05:54:59;;;;;;;;;;;7.60;99.90;;;7.05;100.00;97175.22;5036533;28;1910;-69
2023/12/10 05:57:27;;;;;;;;;;;7.70;99.90;;;7.01;100.00;97147.00;5037382;28;1384;-69
2023/12/10 05:59:54;;;;;;;;;;;7.60;99.90;;;7.08;100.00;97175.09;5037522;28;1582;-69
2023/12/10 06:02:21;;;;;;;;;;;7.70;99.90;;;6.85;100.00;97162.16;5037572;28;1469;-69
2023/12/10 06:04:48;;;;;;;;;;;7.60;99.90;;;6.91;100.00;97169.69;5035912;28;1423;-69
2023/12/10 06:07:15;;;;;;;;;;;7.60;99.90;;;7.05;100.00;97182.97;5036897;28;1459;-69
2023/12/10 06:09:42;;;;;;;;;;;7.70;99.90;;;7.03;100.00;97197.66;5038170;28;1225;-69
2023/12/10 06:12:09;;;;;;;;;;;7.70;99.90;;;6.96;100.00;97216.84;5041480;28;1470;-69
2023/12/10 06:14:36;;;;;;;;;;;7.70;99.90;;;7.05;100.00;97176.97;5035352;28;1914;-69
2023/12/10 06:17:03;;;;;;;;;;;7.70;99.90;;;7.06;100.00;97186.38;5037674;28;1541;-69
2023/12/10 06:19:30;;;;;;;;;;;7.70;99.90;;;7.12;100.00;97202.50;5038276;28;1391;-69
2023/12/10 06:21:57;;;;;;;;;;;7.70;99.90;;;6.98;100.00;97194.41;5037872;28;1455;-69
2023/12/10 06:24:24;;;;;;;;;;;7.70;99.90;;;7.16;100.00;97182.59;5039842;28;1664;-69
2023/12/10 06:26:51;;;;;;;;;;;7.70;99.90;;;7.08;100.00;97200.06;5036283;28;1368;-69
2023/12/10 06:29:18;;;;;;;;;;;7.80;99.90;;;7.10;100.00;97199.13;5039428;28;1416;-68
2023/12/10 06:31:44;;;;;;;;;;;7.80;99.90;;;7.15;100.00;97216.19;5039334;28;1637;-69
2023/12/10 06:34:11;;;;;;;;;;;7.80;99.90;;;7.16;100.00;97216.16;5038288;28;1987;-69
2023/12/10 06:36:38;;;;;;;;;;;7.80;99.90;;;7.24;100.00;97221.03;5038422;28;1385;-69
2023/12/10 06:39:06;;;;;;;;;;;7.80;99.90;;;7.20;100.00;97227.19;5038278;28;1463;-69
2023/12/10 06:41:33;;;;;;;;;;;7.80;99.90;;;7.13;100.00;97239.47;5037109;28;1444;-69
2023/12/10 06:44:00;;;;;;;;;;;7.80;99.90;;;7.33;100.00;97243.94;5040843;28;1481;-69
2023/12/10 06:46:27;;;;;;;;;;;7.80;99.90;;;7.23;100.00;97221.91;5038789;28;1638;-69
2023/12/10 06:48:54;;;;;;;;;;;7.90;99.90;;;7.20;100.00;97230.63;5038878;28;1427;-69
2023/12/10 06:51:21;;;;;;;;;;;7.90;99.90;;;7.32;100.00;97227.63;5039719;28;1416;-69
2023/12/10 06:53:48;;;;;;;;;;;8.00;99.90;;;7.32;100.00;97248.28;5041875;28;2040;-69
2023/12/10 06:56:15;;;;;;;;;;;8.00;99.90;;;7.25;100.00;97230.44;5042551;28;1404;-69
2023/12/10 06:58:42;;;;;;;;;;;8.00;99.90;;;7.49;100.00;97275.25;5044252;28;1427;-69
2023/12/10 07:01:09;;;;;;;;;;;8.00;99.90;;;7.30;100.00;97233.75;5036861;28;1423;-69
2023/12/10 07:03:36;;;;;;;;;;;8.00;99.90;;;7.33;100.00;97239.63;5041036;28;1423;-69
2023/12/10 07:06:03;;;;;;;;;;;8.00;99.90;;;7.52;100.00;97244.97;5040275;28;1583;-69
2023/12/10 07:08:31;;;;;;;;;;;8.00;99.90;;;7.40;100.00;97229.91;5041540;28;1968;-69
2023/12/10 07:10:58;;;;;;;;;;;8.00;99.90;;;7.41;100.00;97259.16;5038881;28;1431;-69
2023/12/10 07:13:25;;;;;;;;;;;8.10;99.90;;;7.57;100.00;97278.38;5040372;28;1462;-69
2023/12/10 07:15:52;;;;;;;;;;;8.10;99.90;;;7.41;100.00;97277.25;5037932;28;1906;-69
2023/12/10 07:18:19;;;;;;;;;;;8.10;99.90;;;7.39;100.00;97266.97;5041206;28;1467;-69
2023/12/10 07:20:46;;;;;;;;;;;8.10;99.90;;;7.49;100.00;97273.50;5037408;28;1481;-69
2023/12/10 07:23:13;;;;;;;;;;;8.10;99.90;;;7.55;100.00;97277.63;5041303;28;1476;-70
2023/12/10 07:25:40;;;;;;;;;;;8.00;99.90;;;7.46;100.00;97239.22;5039443;28;1450;-69
2023/12/10 07:28:07;;;;;;;;;;;8.00;99.90;;;7.43;100.00;97288.34;5039292;28;1372;-70
2023/12/10 07:30:34;;;;;;;;;;;8.00;99.90;;;7.50;100.00;97285.53;5040608;28;1514;-69
2023/12/10 07:33:01;;;;;;;;;;;8.00;99.90;;;7.47;100.00;97279.63;5039283;28;1404;-69
2023/12/10 07:35:28;;;;;;;;;;;8.00;99.90;;;7.46;100.00;97299.44;5039436;28;1902;-69
2023/12/10 07:37:55;;;;;;;;;;;8.00;99.90;;;7.55;100.00;97295.69;5041543;28;1443;-70
2023/12/10 07:40:22;;;;;;;;;;;7.90;99.90;;;7.35;100.00;97296.38;5040642;28;1442;-69
2023/12/10 07:42:49;;;;;;;;;;;7.90;99.90;;;7.33;100.00;97313.66;5042689;28;1431;-69
2023/12/10 07:45:15;;;;;;;;;;;7.90;99.90;;;7.45;100.00;97289.16;5040671;28;1443;-69
2023/12/10 07:47:42;;;;;;;;;;;8.00;99.90;;;7.52;100.00;97288.88;5042555;28;1781;-69
2023/12/10 07:50:09;;;;;;;;;;;8.00;99.90;;;7.47;100.00;97302.84;5037074;28;1002;-69
2023/12/10 07:52:37;;;;;;;;;;;8.00;99.90;;;7.38;100.00;97275.59;5041011;28;1404;-69
2023/12/10 07:55:04;;;;;;;;;;;8.10;99.90;;;7.31;100.00;97310.28;5042405;28;1919;-69
2023/12/10 07:57:31;;;;;;;;;;;8.10;99.90;;;7.37;100.00;97325.56;5036754;28;1025;-69
2023/12/10 07:59:58;;;;;;;;;;;8.00;99.90;;;7.52;100.00;97319.88;5040095;28;1003;-69
2023/12/10 08:02:25;;;;;;;;;;;8.00;99.90;;;7.54;100.00;97323.25;5049890;28;1446;-69
2023/12/10 08:04:53;;;;;;;;;;;8.00;99.90;;;7.55;100.00;97318.94;5036304;28;996;-69
2023/12/10 08:07:20;;;;;;;;;;;8.00;99.90;;;7.67;100.00;97326.25;5040964;28;1471;-69
2023/12/10 08:09:47;;;;;;;;;;;8.10;99.90;;;7.63;100.00;97303.16;5044728;28;1198;-68
2023/12/10 08:12:14;;;;;;;;;;;8.10;99.90;;;7.45;100.00;97312.38;5036677;28;1377;-69
2023/12/10 08:14:41;;;;;;;;;;;8.10;99.90;;;7.57;100.00;97352.44;5036079;28;1997;-69
2023/12/10 08:17:08;;;;;;;;;;;8.00;99.90;;;7.67;100.00;97341.75;5036562;28;1404;-69
2023/12/10 08:19:35;;;;;;;;;;;8.10;99.90;;;7.65;100.00;97345.28;5036337;28;1024;-69
2023/12/10 08:22:02;;;;;;;;;;;8.10;99.90;;;7.77;100.00;97344.00;5040604;28;1386;-69
2023/12/10 08:24:29;;;;;;;;;;;8.30;99.90;;;7.84;100.00;97335.16;5036911;28;1621;-69
2023/12/10 08:26:56;;;;;;;;;;;8.10;99.90;;;7.76;100.00;97350.94;5037367;28;1012;-69
2023/12/10 08:29:23;;;;;;;;;;;8.20;99.90;;;7.70;100.00;97348.56;5041744;28;1060;-69
2023/12/10 08:31:50;;;;;;;;;;;8.20;99.90;;;7.64;100.00;97344.47;5038703;28;1399;-69
2023/12/10 08:34:17;;;;;;;;;;;8.20;99.90;;;7.78;100.00;97361.19;5038322;28;1898;-69
2023/12/10 08:36:44;;;;;;;;;;;8.20;99.90;;;7.78;100.00;97359.47;5038433;28;1475;-69
2023/12/10 08:39:12;;;;;;;;;;;8.20;99.90;;;7.74;100.00;97378.56;5042806;28;1536;-69
2023/12/10 08:41:39;;;;;;;;;;;8.20;99.90;;;7.59;100.00;97382.50;5039228;28;1446;-69
2023/12/10 08:44:06;;;;;;;;;;;8.20;99.90;;;7.50;100.00;97383.66;5038511;28;1459;-69
2023/12/10 08:46:33;;;;;;;;;;;8.20;99.90;;;7.59;100.00;97364.41;5038116;28;1502;-69
2023/12/10 08:49:00;;;;;;;;;;;8.30;99.90;;;7.67;100.00;97372.75;5038437;28;1443;-70
2023/12/10 08:51:27;;;;;;;;;;;8.20;99.90;;;7.68;100.00;97382.19;5039486;28;1407;-69
2023/12/10 08:53:54;;;;;;;;;;;8.30;99.90;;;7.79;100.00;97388.72;5052686;28;1417;-69
2023/12/10 08:56:21;;;;;;;;;;;8.30;99.90;;;7.89;100.00;97395.25;5038946;28;1902;-69
2023/12/10 08:58:49;;;;;;;;;;;8.30;99.90;;;7.96;100.00;97378.66;5042745;28;1157;-69
2023/12/10 09:01:16;;;;;;;;;;;8.30;99.90;;;7.92;100.00;97371.91;5037295;28;1095;-69
2023/12/10 09:03:46;;;;;;;;;;;8.50;99.90;;;7.84;100.00;97374.75;5038365;28;1847;-69
2023/12/10 09:06:14;;;;;;;;;;;8.40;99.90;;;7.80;100.00;97373.19;5039327;28;1599;-69
2023/12/10 09:08:40;;;;;;;;;;;8.40;99.90;;;7.80;100.00;97393.84;5039167;28;1000;-70
2023/12/10 09:11:07;;;;;;;;;;;8.30;99.90;;;7.60;100.00;97385.94;5038524;28;1406;-69
2023/12/10 09:13:37;;;;;;;;;;;8.30;99.90;;;7.45;100.00;97408.78;5040233;28;1452;-69
2023/12/10 09:16:06;;;;;;;;;;;8.20;99.90;;;7.43;100.00;97412.31;5044241;28;1890;-69
2023/12/10 09:18:33;;;;;;;;;;;8.20;99.90;;;7.63;100.00;97415.06;5039040;28;1546;-69
2023/12/10 09:21:00;;;;;;;;;;;8.10;99.90;;;7.45;100.00;97408.78;5040821;28;1633;-69
2023/12/10 09:23:27;;;;;;;;;;;8.20;99.90;;;7.60;100.00;97419.53;5038773;28;1387;-69
2023/12/10 09:25:54;;;;;;;;;;;8.20;99.90;;;7.71;100.00;97415.69;5036001;28;1578;-70
2023/12/10 09:28:22;;;;;;;;;;;8.20;99.90;;;7.84;100.00;97416.09;5041127;28;1414;-65
2023/12/10 09:30:49;;;;;;;;;;;8.20;99.90;;;7.79;100.00;97415.41;5037076;28;1400;-66
2023/12/10 09:33:16;;;;;;;;;;;8.30;99.90;;;7.87;100.00;97433.25;5040072;28;1439;-67
2023/12/10 09:35:43;;;;;;;;;;;8.30;99.90;;;7.96;100.00;97420.84;5039528;28;1914;-67
2023/12/10 09:38:10;;;;;;;;;;;8.30;99.90;;;7.88;100.00;97427.19;5038453;28;1408;-67
2023/12/10 09:40:38;;;;;;;;;;;8.30;99.90;;;7.79;100.00;97428.31;5040347;28;1467;-67
2023/12/10 09:43:05;;;;;;;;;;;8.30;99.90;;;7.74;100.00;97425.91;5036933;28;1492;-66
2023/12/10 09:45:32;;;;;;;;;;;8.40;99.90;;;7.76;100.00;97441.34;5039176;28;1431;-66
2023/12/10 09:48:02;;;;;;;;;;;8.40;99.90;;;7.94;100.00;97440.72;5031285;28;1526;-65
2023/12/10 09:50:31;;;;;;;;;;;8.40;99.90;;;7.86;100.00;97447.06;5033747;28;1402;-66
2023/12/10 09:52:57;;;;;;;;;;;8.50;99.90;;;7.87;100.00;97444.44;5032765;28;1455;-66
2023/12/10 09:55:24;;;;;;;;;;;8.40;99.90;;;7.84;100.00;97426.41;5035611;28;1980;-66
2023/12/10 09:57:51;;;;;;;;;;;8.50;99.90;;;7.70;100.00;97451.88;5036327;28;1435;-67
2023/12/10 10:00:19;;;;;;;;;;;8.50;99.90;;;7.59;100.00;97459.97;5035614;28;1500;-65
2023/12/10 10:02:46;;;;;;;;;;;8.40;99.90;;;7.87;100.00;97456.50;5033650;28;1447;-67
2023/12/10 10:05:13;;;;;;;;;;;8.30;99.90;;;7.77;100.00;97449.94;5032379;28;973;-66
2023/12/10 10:07:39;;;;;;;;;;;8.30;99.90;;;7.63;100.00;97445.25;5032429;28;1162;-66
2023/12/10 10:10:10;;;;;;;;;;;8.30;99.90;;;7.66;100.00;97446.00;5034361;28;1450;-66
2023/12/10 10:12:37;;;;;;;;;;;8.40;99.90;;;7.52;100.00;97445.59;5033466;28;1473;-67
2023/12/10 10:15:05;;;;;;;;;;;8.30;99.90;;;7.60;100.00;97461.69;5031636;28;2023;-67
2023/12/10 10:17:34;;;;;;;;;;;8.30;99.90;;;7.77;100.00;97457.69;5036314;28;1634;-66
2023/12/10 10:20:06;;;;;;;;;;;8.20;99.90;;;7.72;100.00;97453.53;5034670;28;1515;-66
2023/12/10 10:22:34;;;;;;;;;;;8.30;99.90;;;7.66;100.00;97458.03;5034210;28;1519;-66
2023/12/10 10:25:03;;;;;;;;;;;8.30;99.90;;;7.71;100.00;97458.75;5032657;28;1515;-66
2023/12/10 10:27:33;;;;;;;;;;;8.30;99.90;;;7.72;100.00;97456.09;5040025;28;1368;-66
2023/12/10 10:30:03;;;;;;;;;;;8.30;99.90;;;7.67;100.00;97475.25;5036693;28;1449;-66
2023/12/10 10:32:30;;;;;;;;;;;8.20;99.90;;;7.68;100.00;97470.00;5038091;28;1805;-66
2023/12/10 10:34:58;;;;;;;;;;;8.30;99.90;;;7.92;100.00;97464.94;5036240;28;1942;-66
2023/12/10 10:37:25;;;;;;;;;;;8.30;99.90;;;7.80;100.00;97455.88;5022847;28;1486;-65
2023/12/10 10:39:52;;;;;;;;;;;8.30;99.90;;;7.80;100.00;97475.66;5039409;28;1490;-65
2023/12/10 10:42:19;;;;;;;;;;;8.30;99.90;;;7.80;100.00;97449.84;5035161;28;1410;-65
2023/12/10 10:44:46;;;;;;;;;;;8.40;99.90;;;7.80;100.00;97450.72;5035394;28;1498;-65
2023/12/10 10:47:15;;;;;;;;;;;8.30;99.90;;;7.60;100.00;97441.03;5037310;28;1434;-65
2023/12/10 10:49:45;;;;;;;;;;;8.30;99.90;;;7.58;100.00;97440.22;5034521;28;1474;-66
2023/12/10 10:52:34;;;;;;;;;;;8.30;99.90;;;7.48;100.00;97449.16;5034286;28;2175;-65
2023/12/10 10:55:02;;;;;;;;;;;8.30;99.90;;;7.58;100.00;97452.31;5036041;28;2001;-65
2023/12/10 10:57:34;;;;;;;;;;;8.20;99.90;;;7.40;100.00;97459.75;5034530;28;1840;-66
2023/12/10 11:00:19;;;;;;;;;;;8.10;99.90;;;7.43;100.00;97456.22;5037713;28;1483;-66
2023/12/10 11:02:49;;;;;;;;;;;8.10;99.90;;;7.46;100.00;97459.56;5033970;28;1581;-65
2023/12/10 11:05:33;;;;;;;;;;;8.00;99.90;;;7.38;100.00;97443.44;5035595;28;1772;-65
2023/12/10 11:08:01;;;;;;;;;;;8.00;99.90;;;7.31;100.00;97453.13;5037860;28;1506;-66
2023/12/10 11:10:27;;;;;;;;;;;8.00;99.90;;;7.39;100.00;97447.72;5039004;28;1546;-65
2023/12/10 11:12:57;;;;;;;;;;;8.00;99.90;;;7.41;100.00;97461.44;5036650;28;1669;-65
2023/12/10 11:15:25;;;;;;;;;;;7.90;99.90;;;7.36;100.00;97457.31;5023256;28;2035;-65
2023/12/10 11:17:56;;;;;;;;;;;7.90;99.90;;;7.36;100.00;97454.72;5036848;28;1537;-65
2023/12/10 11:20:33;;;;;;;;;;;7.90;99.90;;;7.36;100.00;97460.72;5034526;28;1537;-65
2023/12/10 11:23:04;;;;;;;;;;;8.00;99.90;;;7.32;100.00;97456.53;5039897;28;1702;-65
2023/12/10 11:25:32;;;;;;;;;;;8.00;99.90;;;7.39;100.00;97480.44;5036759;28;1537;-66
2023/12/10 11:28:10;;;;;;;;;;;8.00;99.90;;;7.48;100.00;97450.03;5035551;28;1611;-65
2023/12/10 11:30:42;;;;;;;;;;;7.90;99.90;;;7.26;100.00;97446.44;5037851;28;1576;-65
2023/12/10 11:33:11;;;;;;;;;;;7.90;99.90;;;7.31;100.00;97458.28;5035801;28;1549;-66
2023/12/10 11:35:39;;;;;;;;;;;8.00;99.90;;;7.33;100.00;97460.81;5034032;28;1983;-65